sensor_id;sensor_type;location;lat;lon;timestamp;pressure;altitude;pressure_sealevel;temperature;humidity
43707;BME280;61348;53.392;-6.248;2023-09-12T00:00:32;100757.69;;;14.49;100.00
43707;BME280;61348;53.392;-6.248;2023-09-12T00:02:59;100761.59;;;14.44;100.00
43707;BME280;61348;53.392;-6.248;2023-09-12T00:05:26;100762.72;;;14.40;100.00
43707;BME280;61348;53.392;-6.248;2023-09-12T00:07:52;100770.19;;;14.36;100.00
43707;BME280;61348;53.392;-6.248;2023-09-12T00:10:22;100760.97;;;14.32;100.00
43707;BME280;61348;53.392;-6.248;2023-09-12T00:12:49;100770.75;;;14.26;100.00
43707;BME280;61348;53.392;-6.248;2023-09-12T00:15:15;100763.44;;;14.18;100.00
43707;BME280;61348;53.392;-6.248;2023-09-12T00:17:42;100778.09;;;14.15;100.00
43707;BME280;61348;53.392;-6.248;2023-09-12T00:20:10;100768.44;;;14.09;100.00
43707;BME280;61348;53.392;-6.248;2023-09-12T00:22:37;100775.94;;;14.04;100.00
43707;BME280;61348;53.392;-6.248;2023-09-12T00:25:04;100785.44;;;14.03;100.00
43707;BME280;61348;53.392;-6.248;2023-09-12T00:27:31;100784.56;;;13.99;100.00
43707;BME280;61348;53.392;-6.248;2023-09-12T00:29:58;100784.19;;;14.01;100.00
43707;BME280;61348;53.392;-6.248;2023-09-12T00:32:25;100792.50;;;13.97;100.00
43707;BME280;61348;53.392;-6.248;2023-09-12T00:34:53;100788.38;;;13.91;100.00
43707;BME280;61348;53.392;-6.248;2023-09-12T00:37:20;100799.09;;;13.89;100.00
43707;BME280;61348;53.392;-6.248;2023-09-12T00:39:47;100791.03;;;13.84;100.00
43707;BME280;61348;53.392;-6.248;2023-09-12T00:42:14;100801.69;;;13.82;100.00
43707;BME280;61348;53.392;-6.248;2023-09-12T00:44:41;100788.50;;;13.79;100.00
43707;BME280;61348;53.392;-6.248;2023-09-12T00:47:08;100798.47;;;13.80;100.00
43707;BME280;61348;53.392;-6.248;2023-09-12T00:49:38;100794.06;;;13.79;100.00
43707;BME280;61348;53.392;-6.248;2023-09-12T00:52:08;100799.50;;;13.72;100.00
43707;BME280;61348;53.392;-6.248;2023-09-12T00:54:35;100800.69;;;13.71;100.00
43707;BME280;61348;53.392;-6.248;2023-09-12T00:57:02;100797.44;;;13.69;100.00
43707;BME280;61348;53.392;-6.248;2023-09-12T00:59:29;100795.75;;;13.65;100.00
43707;BME280;61348;53.392;-6.248;2023-09-12T01:01:56;100790.84;;;13.58;100.00
43707;BME280;61348;53.392;-6.248;2023-09-12T01:04:23;100805.94;;;13.57;100.00
43707;BME280;61348;53.392;-6.248;2023-09-12T01:07:02;100801.91;;;13.55;100.00
43707;BME280;61348;53.392;-6.248;2023-09-12T01:09:31;100805.03;;;13.53;100.00
43707;BME280;61348;53.392;-6.248;2023-09-12T01:11:59;100813.75;;;13.52;100.00
43707;BME280;61348;53.392;-6.248;2023-09-12T01:14:26;100815.38;;;13.53;100.00
43707;BME280;61348;53.392;-6.248;2023-09-12T01:16:52;100813.84;;;13.55;100.00
43707;BME280;61348;53.392;-6.248;2023-09-12T01:19:19;100813.84;;;13.55;100.00
43707;BME280;61348;53.392;-6.248;2023-09-12T01:27:27;100805.41;;;13.52;100.00
43707;BME280;61348;53.392;-6.248;2023-09-12T01:29:57;100807.03;;;13.53;100.00
43707;BME280;61348;53.392;-6.248;2023-09-12T01:32:28;100809.00;;;13.52;100.00
43707;BME280;61348;53.392;-6.248;2023-09-12T01:34:55;100804.25;;;13.53;100.00
43707;BME280;61348;53.392;-6.248;2023-09-12T01:37:22;100813.38;;;13.53;100.00
43707;BME280;61348;53.392;-6.248;2023-09-12T01:39:49;100812.94;;;13.51;100.00
43707;BME280;61348;53.392;-6.248;2023-09-12T01:42:18;100820.13;;;13.52;100.00
43707;BME280;61348;53.392;-6.248;2023-09-12T01:44:46;100816.91;;;13.50;100.00
43707;BME280;61348;53.392;-6.248;2023-09-12T01:47:17;100816.00;;;13.46;100.00
43707;BME280;61348;53.392;-6.248;2023-09-12T01:49:49;100811.16;;;13.43;100.00
43707;BME280;61348;53.392;-6.248;2023-09-12T01:52:16;100817.09;;;13.41;100.00
43707;BME280;61348;53.392;-6.248;2023-09-12T01:54:44;100810.72;;;13.41;100.00
43707;BME280;61348;53.392;-6.248;2023-09-12T01:57:12;100819.88;;;13.41;100.00
43707;BME280;61348;53.392;-6.248;2023-09-12T01:59:40;100817.44;;;13.40;100.00
43707;BME280;61348;53.392;-6.248;2023-09-12T02:02:07;100807.06;;;13.37;100.00
43707;BME280;61348;53.392;-6.248;2023-09-12T02:04:34;100820.53;;;13.35;100.00
43707;BME280;61348;53.392;-6.248;2023-09-12T02:07:00;100822.44;;;13.31;100.00
43707;BME280;61348;53.392;-6.248;2023-09-12T02:09:27;100820.38;;;13.28;100.00
43707;BME280;61348;53.392;-6.248;2023-09-12T02:11:54;100814.81;;;13.28;100.00
43707;BME280;61348;53.392;-6.248;2023-09-12T02:14:21;100826.63;;;13.25;100.00
43707;BME280;61348;53.392;-6.248;2023-09-12T02:16:48;100836.13;;;13.24;100.00
43707;BME280;61348;53.392;-6.248;2023-09-12T02:19:15;100838.91;;;13.24;100.00
43707;BME280;61348;53.392;-6.248;2023-09-12T02:21:41;100840.09;;;13.23;100.00
43707;BME280;61348;53.392;-6.248;2023-09-12T02:24:09;100836.88;;;13.21;100.00
43707;BME280;61348;53.392;-6.248;2023-09-12T02:26:36;100843.16;;;13.18;100.00
43707;BME280;61348;53.392;-6.248;2023-09-12T02:29:05;100847.91;;;13.17;100.00
43707;BME280;61348;53.392;-6.248;2023-09-12T02:31:32;100845.47;;;13.16;100.00
43707;BME280;61348;53.392;-6.248;2023-09-12T02:33:59;100847.00;;;13.13;100.00
43707;BME280;61348;53.392;-6.248;2023-09-12T02:36:28;100837.78;;;13.09;100.00
43707;BME280;61348;53.392;-6.248;2023-09-12T02:38:54;100848.78;;;13.06;100.00
43707;BME280;61348;53.392;-6.248;2023-09-12T02:41:21;100841.16;;;13.03;100.00
43707;BME280;61348;53.392;-6.248;2023-09-12T02:43:48;100842.66;;;13.00;100.00
43707;BME280;61348;53.392;-6.248;2023-09-12T02:46:14;100846.25;;;13.01;100.00
43707;BME280;61348;53.392;-6.248;2023-09-12T02:48:41;100845.81;;;12.99;100.00
43707;BME280;61348;53.392;-6.248;2023-09-12T02:51:08;100842.59;;;12.97;100.00
43707;BME280;61348;53.392;-6.248;2023-09-12T02:53:35;100848.97;;;12.97;100.00
43707;BME280;61348;53.392;-6.248;2023-09-12T02:56:02;100844.91;;;12.95;100.00
43707;BME280;61348;53.392;-6.248;2023-09-12T02:58:29;100848.16;;;12.97;100.00
43707;BME280;61348;53.392;-6.248;2023-09-12T03:00:56;100852.53;;;12.98;100.00
43707;BME280;61348;53.392;-6.248;2023-09-12T03:03:22;100848.16;;;12.97;100.00
43707;BME280;61348;53.392;-6.248;2023-09-12T03:06:00;100853.44;;;13.02;100.00
43707;BME280;61348;53.392;-6.248;2023-09-12T03:08:29;100852.53;;;12.98;100.00
43707;BME280;61348;53.392;-6.248;2023-09-12T03:10:57;100851.38;;;12.99;100.00
43707;BME280;61348;53.392;-6.248;2023-09-12T03:13:26;100856.94;;;12.99;100.00
43707;BME280;61348;53.392;-6.248;2023-09-12T03:15:53;100859.81;;;13.02;100.00
43707;BME280;61348;53.392;-6.248;2023-09-12T03:18:19;100861.84;;;13.05;100.00
43707;BME280;61348;53.392;-6.248;2023-09-12T03:20:46;100863.16;;;13.08;100.00
43707;BME280;61348;53.392;-6.248;2023-09-12T03:23:13;100863.16;;;13.08;100.00
43707;BME280;61348;53.392;-6.248;2023-09-12T03:25:40;100873.53;;;13.11;100.00
43707;BME280;61348;53.392;-6.248;2023-09-12T03:28:07;100863.25;;;13.11;100.00
43707;BME280;61348;53.392;-6.248;2023-09-12T03:30:35;100861.28;;;13.12;100.00
43707;BME280;61348;53.392;-6.248;2023-09-12T03:33:04;100866.72;;;13.08;100.00
43707;BME280;61348;53.392;-6.248;2023-09-12T03:35:34;100872.66;;;13.07;100.00
43707;BME280;61348;53.392;-6.248;2023-09-12T03:38:01;100878.31;;;13.10;100.00
43707;BME280;61348;53.392;-6.248;2023-09-12T03:40:29;100867.53;;;13.09;100.00
43707;BME280;61348;53.392;-6.248;2023-09-12T03:42:59;100876.31;;;13.11;100.00
43707;BME280;61348;53.392;-6.248;2023-09-12T03:45:26;100875.97;;;13.12;100.00
43707;BME280;61348;53.392;-6.248;2023-09-12T03:47:53;100874.81;;;13.13;100.00
43707;BME280;61348;53.392;-6.248;2023-09-12T03:50:19;100874.47;;;13.15;100.00
43707;BME280;61348;53.392;-6.248;2023-09-12T03:52:46;100881.97;;;13.14;100.00
43707;BME280;61348;53.392;-6.248;2023-09-12T03:55:13;100876.88;;;13.16;100.00
43707;BME280;61348;53.392;-6.248;2023-09-12T03:57:40;100880.19;;;13.22;100.00
43707;BME280;61348;53.392;-6.248;2023-09-12T04:00:07;100889.44;;;13.26;100.00
43707;BME280;61348;53.392;-6.248;2023-09-12T04:02:35;100874.34;;;13.27;100.00
43707;BME280;61348;53.392;-6.248;2023-09-12T04:05:02;100877.13;;;13.27;100.00
43707;BME280;61348;53.392;-6.248;2023-09-12T04:07:29;100881.53;;;13.28;100.00
43707;BME280;61348;53.392;-6.248;2023-09-12T04:09:56;100878.38;;;13.29;100.00
43707;BME280;61348;53.392;-6.248;2023-09-12T04:12:22;100879.19;;;13.30;100.00
43707;BME280;61348;53.392;-6.248;2023-09-12T04:14:50;100881.16;;;13.29;100.00
43707;BME280;61348;53.392;-6.248;2023-09-12T04:17:21;100878.38;;;13.29;100.00
43707;BME280;61348;53.392;-6.248;2023-09-12T04:19:48;100877.59;;;13.29;100.00
43707;BME280;61348;53.392;-6.248;2023-09-12T04:22:15;100877.22;;;13.30;100.00
43707;BME280;61348;53.392;-6.248;2023-09-12T04:24:41;100879.63;;;13.32;100.00
43707;BME280;61348;53.392;-6.248;2023-09-12T04:27:09;100887.97;;;13.32;100.00
43707;BME280;61348;53.392;-6.248;2023-09-12T04:29:35;100879.63;;;13.32;100.00
43707;BME280;61348;53.392;-6.248;2023-09-12T04:32:05;100880.44;;;13.32;100.00
43707;BME280;61348;53.392;-6.248;2023-09-12T04:34:32;100877.59;;;13.29;100.00
43707;BME280;61348;53.392;-6.248;2023-09-12T04:36:59;100879.91;;;13.27;100.00
43707;BME280;61348;53.392;-6.248;2023-09-12T04:39:28;100879.56;;;13.28;100.00
43707;BME280;61348;53.392;-6.248;2023-09-12T04:41:56;100884.31;;;13.28;100.00
43707;BME280;61348;53.392;-6.248;2023-09-12T04:44:23;100884.66;;;13.26;100.00
43707;BME280;61348;53.392;-6.248;2023-09-12T04:46:50;100883.88;;;13.26;100.00
43707;BME280;61348;53.392;-6.248;2023-09-12T04:49:17;100896.59;;;13.27;100.00
43707;BME280;61348;53.392;-6.248;2023-09-12T04:51:44;100890.22;;;13.26;100.00
43707;BME280;61348;53.392;-6.248;2023-09-12T04:54:11;100895.78;;;13.26;100.00
43707;BME280;61348;53.392;-6.248;2023-09-12T04:56:38;100895.00;;;13.26;100.00
43707;BME280;61348;53.392;-6.248;2023-09-12T04:59:05;100900.91;;;13.24;100.00
43707;BME280;61348;53.392;-6.248;2023-09-12T05:01:33;100905.19;;;13.22;100.00
43707;BME280;61348;53.392;-6.248;2023-09-12T05:04:00;100908.34;;;13.20;100.00
43707;BME280;61348;53.392;-6.248;2023-09-12T05:06:27;100913.00;;;13.16;100.00
43707;BME280;61348;53.392;-6.248;2023-09-12T05:08:54;100903.41;;;13.14;100.00
43707;BME280;61348;53.392;-6.248;2023-09-12T05:11:24;100913.28;;;13.11;100.00
43707;BME280;61348;53.392;-6.248;2023-09-12T05:13:51;100912.69;;;13.06;100.00
43707;BME280;61348;53.392;-6.248;2023-09-12T05:16:19;100915.03;;;13.04;100.00
43707;BME280;61348;53.392;-6.248;2023-09-12T05:18:46;100909.03;;;13.02;100.00
43707;BME280;61348;53.392;-6.248;2023-09-12T05:21:15;100922.13;;;13.01;100.00
43707;BME280;61348;53.392;-6.248;2023-09-12T05:23:42;100924.78;;;12.98;100.00
43707;BME280;61348;53.392;-6.248;2023-09-12T05:26:09;100916.28;;;12.91;100.00
43707;BME280;61348;53.392;-6.248;2023-09-12T05:28:36;100926.25;;;12.92;100.00
43707;BME280;61348;53.392;-6.248;2023-09-12T05:31:03;100922.09;;;12.86;100.00
43707;BME280;61348;53.392;-6.248;2023-09-12T05:33:30;100917.00;;;12.88;100.00
43707;BME280;61348;53.392;-6.248;2023-09-12T05:35:59;100928.00;;;12.84;100.00
43707;BME280;61348;53.392;-6.248;2023-09-12T05:38:26;100933.47;;;12.80;100.00
43707;BME280;61348;53.392;-6.248;2023-09-12T05:40:52;100933.03;;;12.78;100.00
43707;BME280;61348;53.392;-6.248;2023-09-12T05:43:19;100934.19;;;12.77;100.00
43707;BME280;61348;53.392;-6.248;2023-09-12T05:45:46;100937.41;;;12.79;100.00
43707;BME280;61348;53.392;-6.248;2023-09-12T05:48:13;100940.56;;;12.78;100.00
43707;BME280;61348;53.392;-6.248;2023-09-12T05:50:40;100938.81;;;12.73;100.00
43707;BME280;61348;53.392;-6.248;2023-09-12T05:53:08;100942.78;;;12.72;100.00
43707;BME280;61348;53.392;-6.248;2023-09-12T05:55:34;100936.41;;;12.72;100.00
43707;BME280;61348;53.392;-6.248;2023-09-12T05:58:02;100948.34;;;12.72;100.00
43707;BME280;61348;53.392;-6.248;2023-09-12T06:00:33;100942.06;;;12.75;100.00
43707;BME280;61348;53.392;-6.248;2023-09-12T06:03:00;100951.94;;;12.73;100.00
43707;BME280;61348;53.392;-6.248;2023-09-12T06:05:27;100952.19;;;12.68;100.00
43707;BME280;61348;53.392;-6.248;2023-09-12T06:07:54;100954.84;;;12.64;100.00
43707;BME280;61348;53.392;-6.248;2023-09-12T06:10:21;100952.78;;;12.61;100.00
43707;BME280;61348;53.392;-6.248;2023-09-12T06:12:48;100955.09;;;12.59;100.00
43707;BME280;61348;53.392;-6.248;2023-09-12T06:15:16;100952.66;;;12.58;100.00
43707;BME280;61348;53.392;-6.248;2023-09-12T06:17:43;100955.91;;;12.60;100.00
43707;BME280;61348;53.392;-6.248;2023-09-12T06:20:10;100963.88;;;12.61;100.00
43707;BME280;61348;53.392;-6.248;2023-09-12T06:22:37;100970.16;;;12.58;100.00
43707;BME280;61348;53.392;-6.248;2023-09-12T06:25:04;100971.78;;;12.59;100.00
43707;BME280;61348;53.392;-6.248;2023-09-12T06:27:31;100982.06;;;12.59;100.00
43707;BME280;61348;53.392;-6.248;2023-09-12T06:29:58;100982.97;;;12.63;100.00
43707;BME280;61348;53.392;-6.248;2023-09-12T06:32:25;100984.72;;;12.67;100.00
43707;BME280;61348;53.392;-6.248;2023-09-12T06:34:52;100976.00;;;12.69;100.00
43707;BME280;61348;53.392;-6.248;2023-09-12T06:37:18;100990.72;;;12.69;100.00
43707;BME280;61348;53.392;-6.248;2023-09-12T06:39:49;100985.97;;;12.70;100.00
43707;BME280;61348;53.392;-6.248;2023-09-12T06:42:16;100994.19;;;12.66;100.00
43707;BME280;61348;53.392;-6.248;2023-09-12T06:44:42;101001.44;;;12.71;100.00
43707;BME280;61348;53.392;-6.248;2023-09-12T06:47:09;101003.91;;;12.72;99.97
43707;BME280;61348;53.392;-6.248;2023-09-12T06:49:37;101002.72;;;12.73;100.00
43707;BME280;61348;53.392;-6.248;2023-09-12T06:52:04;101004.72;;;12.73;99.75
43707;BME280;61348;53.392;-6.248;2023-09-12T06:54:33;100997.53;;;12.72;99.62
43707;BME280;61348;53.392;-6.248;2023-09-12T06:57:00;100999.03;;;12.69;99.65
43707;BME280;61348;53.392;-6.248;2023-09-12T06:59:27;100998.69;;;12.71;99.75
43707;BME280;61348;53.392;-6.248;2023-09-12T07:01:54;101005.97;;;12.75;99.86
43707;BME280;61348;53.392;-6.248;2023-09-12T07:04:21;101012.88;;;12.81;99.80
43707;BME280;61348;53.392;-6.248;2023-09-12T07:06:49;101017.66;;;12.81;99.33
43707;BME280;61348;53.392;-6.248;2023-09-12T07:09:15;101011.28;;;12.80;99.17
43707;BME280;61348;53.392;-6.248;2023-09-12T07:11:43;101020.50;;;12.84;99.14
43707;BME280;61348;53.392;-6.248;2023-09-12T07:14:10;101016.13;;;12.83;98.81
43707;BME280;61348;53.392;-6.248;2023-09-12T07:16:37;101022.84;;;12.82;98.47
43707;BME280;61348;53.392;-6.248;2023-09-12T07:19:04;101035.84;;;12.78;98.29
43707;BME280;61348;53.392;-6.248;2023-09-12T07:21:31;101033.59;;;12.84;98.60
43707;BME280;61348;53.392;-6.248;2023-09-12T07:23:58;101035.59;;;12.83;98.18
43707;BME280;61348;53.392;-6.248;2023-09-12T07:26:25;101034.50;;;12.88;98.21
43707;BME280;61348;53.392;-6.248;2023-09-12T07:28:54;101040.63;;;12.94;98.13
43707;BME280;61348;53.392;-6.248;2023-09-12T07:31:20;101040.97;;;12.92;97.45
43707;BME280;61348;53.392;-6.248;2023-09-12T07:33:48;101031.09;;;12.95;97.43
43707;BME280;61348;53.392;-6.248;2023-09-12T07:36:14;101037.03;;;12.93;97.16
43707;BME280;61348;53.392;-6.248;2023-09-12T07:38:41;101042.59;;;12.93;97.18
43707;BME280;61348;53.392;-6.248;2023-09-12T07:41:09;101054.06;;;12.92;97.07
43707;BME280;61348;53.392;-6.248;2023-09-12T07:43:36;101053.84;;;12.84;96.86
43707;BME280;61348;53.392;-6.248;2023-09-12T07:46:02;101060.34;;;12.76;96.57
43707;BME280;61348;53.392;-6.248;2023-09-12T07:48:30;101062.25;;;12.72;96.76
43707;BME280;61348;53.392;-6.248;2023-09-12T07:50:57;101065.72;;;12.69;96.67
43707;BME280;61348;53.392;-6.248;2023-09-12T07:53:24;101063.19;;;12.64;96.67
43707;BME280;61348;53.392;-6.248;2023-09-12T07:55:50;101060.41;;;12.64;96.72
43707;BME280;61348;53.392;-6.248;2023-09-12T07:58:18;101058.31;;;12.61;96.34
43707;BME280;61348;53.392;-6.248;2023-09-12T08:00:50;101072.66;;;12.63;96.68
43707;BME280;61348;53.392;-6.248;2023-09-12T08:03:17;101066.66;;;12.61;96.26
43707;BME280;61348;53.392;-6.248;2023-09-12T08:05:54;101081.47;;;12.65;96.39
43707;BME280;61348;53.392;-6.248;2023-09-12T08:08:21;101076.38;;;12.67;96.08
43707;BME280;61348;53.392;-6.248;2023-09-12T08:10:48;101076.00;;;12.69;95.78
43707;BME280;61348;53.392;-6.248;2023-09-12T08:13:14;101074.16;;;12.73;96.09
43707;BME280;61348;53.392;-6.248;2023-09-12T08:15:41;101070.69;;;12.76;95.74
43707;BME280;61348;53.392;-6.248;2023-09-12T08:18:08;101081.88;;;12.79;95.58
43707;BME280;61348;53.392;-6.248;2023-09-12T08:20:35;101071.34;;;12.85;95.87
43707;BME280;61348;53.392;-6.248;2023-09-12T08:23:02;101071.91;;;12.91;95.77
43707;BME280;61348;53.392;-6.248;2023-09-12T08:25:29;101079.97;;;12.96;95.94
43707;BME280;61348;53.392;-6.248;2023-09-12T08:27:56;101083.31;;;13.01;96.07
43707;BME280;61348;53.392;-6.248;2023-09-12T08:30:23;101088.19;;;13.04;96.50
43707;BME280;61348;53.392;-6.248;2023-09-12T08:32:52;101084.47;;;13.12;97.03
43707;BME280;61348;53.392;-6.248;2023-09-12T08:35:19;101083.16;;;13.22;97.82
43707;BME280;61348;53.392;-6.248;2023-09-12T08:37:46;101091.34;;;13.30;98.81
43707;BME280;61348;53.392;-6.248;2023-09-12T08:40:14;101084.53;;;13.43;100.00
43707;BME280;61348;53.392;-6.248;2023-09-12T08:42:43;101086.53;;;13.59;100.00
43707;BME280;61348;53.392;-6.248;2023-09-12T08:45:15;101084.69;;;13.78;100.00
43707;BME280;61348;53.392;-6.248;2023-09-12T08:47:50;101093.91;;;13.98;100.00
43707;BME280;61348;53.392;-6.248;2023-09-12T08:50:20;101100.19;;;14.26;100.00
43707;BME280;61348;53.392;-6.248;2023-09-12T08:52:47;101107.78;;;14.60;100.00
43707;BME280;61348;53.392;-6.248;2023-09-12T08:55:33;101099.38;;;15.14;100.00
43707;BME280;61348;53.392;-6.248;2023-09-12T08:58:03;101106.91;;;15.94;100.00
43707;BME280;61348;53.392;-6.248;2023-09-12T09:00:31;101118.53;;;16.97;100.00
43707;BME280;61348;53.392;-6.248;2023-09-12T09:02:59;101120.19;;;18.09;100.00
43707;BME280;61348;53.392;-6.248;2023-09-12T09:05:27;101127.38;;;19.19;95.63
43707;BME280;61348;53.392;-6.248;2023-09-12T09:07:54;101135.66;;;20.16;89.08
43707;BME280;61348;53.392;-6.248;2023-09-12T09:10:22;101134.78;;;21.00;83.71
43707;BME280;61348;53.392;-6.248;2023-09-12T09:13:08;101139.69;;;21.79;79.31
43707;BME280;61348;53.392;-6.248;2023-09-12T09:15:37;101142.94;;;22.32;74.09
43707;BME280;61348;53.392;-6.248;2023-09-12T09:18:09;101139.41;;;22.73;70.26
43707;BME280;61348;53.392;-6.248;2023-09-12T09:20:38;101139.03;;;23.08;67.72
43707;BME280;61348;53.392;-6.248;2023-09-12T09:23:09;101153.84;;;23.53;65.31
43707;BME280;61348;53.392;-6.248;2023-09-12T09:25:40;101159.59;;;23.73;63.41
43707;BME280;61348;53.392;-6.248;2023-09-12T09:28:20;101155.56;;;24.00;63.61
43707;BME280;61348;53.392;-6.248;2023-09-12T09:30:49;101160.44;;;24.27;57.97
43707;BME280;61348;53.392;-6.248;2023-09-12T09:33:21;101156.06;;;24.49;57.02
43707;BME280;61348;53.392;-6.248;2023-09-12T09:35:48;101151.53;;;24.74;54.94
43707;BME280;61348;53.392;-6.248;2023-09-12T09:38:20;101159.06;;;24.85;55.21
43707;BME280;61348;53.392;-6.248;2023-09-12T09:40:47;101155.97;;;24.99;53.40
43707;BME280;61348;53.392;-6.248;2023-09-12T09:43:20;101160.84;;;25.18;52.97
43707;BME280;61348;53.392;-6.248;2023-09-12T09:45:47;101159.47;;;25.26;50.36
43707;BME280;61348;53.392;-6.248;2023-09-12T09:50:45;101157.53;;;25.62;49.16
43707;BME280;61348;53.392;-6.248;2023-09-12T09:53:12;101156.47;;;25.72;48.40
43707;BME280;61348;53.392;-6.248;2023-09-12T09:55:39;101170.44;;;25.83;47.04
43707;BME280;61348;53.392;-6.248;2023-09-12T09:58:06;101163.59;;;25.80;46.10
43707;BME280;61348;53.392;-6.248;2023-09-12T10:00:39;101161.63;;;25.77;47.51
43707;BME280;61348;53.392;-6.248;2023-09-12T10:03:06;101162.38;;;25.97;45.62
43707;BME280;61348;53.392;-6.248;2023-09-12T10:05:37;101170.22;;;26.10;44.87
43707;BME280;61348;53.392;-6.248;2023-09-12T10:08:06;101168.53;;;26.12;44.70
43707;BME280;61348;53.392;-6.248;2023-09-12T10:10:35;101164.69;;;25.86;43.52
43707;BME280;61348;53.392;-6.248;2023-09-12T10:13:05;101170.22;;;25.34;43.97
43707;BME280;61348;53.392;-6.248;2023-09-12T10:15:34;101149.56;;;25.34;43.38
43707;BME280;61348;53.392;-6.248;2023-09-12T10:18:06;101154.63;;;25.46;43.86
43707;BME280;61348;53.392;-6.248;2023-09-12T10:20:43;101161.75;;;25.54;43.96
43707;BME280;61348;53.392;-6.248;2023-09-12T10:23:17;101159.31;;;25.72;43.27
43707;BME280;61348;53.392;-6.248;2023-09-12T10:25:47;101164.91;;;25.17;43.45
43707;BME280;61348;53.392;-6.248;2023-09-12T10:28:16;101164.72;;;24.38;43.93
43707;BME280;61348;53.392;-6.248;2023-09-12T10:30:44;101157.78;;;24.16;44.99
43707;BME280;61348;53.392;-6.248;2023-09-12T10:33:13;101171.78;;;24.50;44.38
43707;BME280;61348;53.392;-6.248;2023-09-12T10:35:41;101175.19;;;24.88;43.98
43707;BME280;61348;53.392;-6.248;2023-09-12T10:38:09;101173.06;;;25.15;43.03
43707;BME280;61348;53.392;-6.248;2023-09-12T10:40:41;101181.44;;;24.52;43.90
43707;BME280;61348;53.392;-6.248;2023-09-12T10:45:41;101172.56;;;23.36;45.64
43707;BME280;61348;53.392;-6.248;2023-09-12T10:48:09;101169.50;;;23.24;46.99
43707;BME280;61348;53.392;-6.248;2023-09-12T10:50:38;101179.03;;;23.40;46.42
43707;BME280;61348;53.392;-6.248;2023-09-12T10:53:11;101178.78;;;23.24;46.48
43707;BME280;61348;53.392;-6.248;2023-09-12T10:55:39;101177.53;;;22.88;46.81
43707;BME280;61348;53.392;-6.248;2023-09-12T10:58:10;101180.19;;;22.13;47.17
43707;BME280;61348;53.392;-6.248;2023-09-12T11:00:40;101176.53;;;21.37;48.69
43707;BME280;61348;53.392;-6.248;2023-09-12T11:03:36;101179.84;;;20.89;49.84
43707;BME280;61348;53.392;-6.248;2023-09-12T11:06:04;101180.31;;;20.70;50.33
43707;BME280;61348;53.392;-6.248;2023-09-12T11:08:35;101173.47;;;20.50;50.87
43707;BME280;61348;53.392;-6.248;2023-09-12T11:11:21;101169.06;;;20.35;50.86
43707;BME280;61348;53.392;-6.248;2023-09-12T11:14:05;101174.59;;;20.10;50.01
43707;BME280;61348;53.392;-6.248;2023-09-12T11:16:32;101166.94;;;19.89;50.57
43707;BME280;61348;53.392;-6.248;2023-09-12T11:19:21;101172.91;;;19.70;50.34
43707;BME280;61348;53.392;-6.248;2023-09-12T11:21:53;101172.41;;;19.43;49.72
43707;BME280;61348;53.392;-6.248;2023-09-12T11:24:20;101173.16;;;19.30;50.43
43707;BME280;61348;53.392;-6.248;2023-09-12T11:26:57;101168.31;;;19.27;50.35
43707;BME280;61348;53.392;-6.248;2023-09-12T11:29:36;101180.72;;;19.19;51.14
43707;BME280;61348;53.392;-6.248;2023-09-12T11:32:03;101177.84;;;19.12;51.20
43707;BME280;61348;53.392;-6.248;2023-09-12T11:34:42;101171.44;;;19.08;51.62
43707;BME280;61348;53.392;-6.248;2023-09-12T11:37:10;101178.59;;;19.02;52.02
43707;BME280;61348;53.392;-6.248;2023-09-12T11:39:39;101174.19;;;19.04;52.27
43707;BME280;61348;53.392;-6.248;2023-09-12T11:42:11;101175.81;;;19.05;52.93
43707;BME280;61348;53.392;-6.248;2023-09-12T11:44:40;101173.00;;;19.02;53.21
43707;BME280;61348;53.392;-6.248;2023-09-12T11:47:08;101174.47;;;18.85;53.34
43707;BME280;61348;53.392;-6.248;2023-09-12T11:49:41;101168.78;;;18.71;53.40
43707;BME280;61348;53.392;-6.248;2023-09-12T11:52:14;101166.31;;;18.62;53.76
43707;BME280;61348;53.392;-6.248;2023-09-12T11:54:46;101176.72;;;18.62;53.96
43707;BME280;61348;53.392;-6.248;2023-09-12T11:57:14;101181.09;;;18.56;54.25
43707;BME280;61348;53.392;-6.248;2023-09-12T11:59:43;101180.66;;;18.54;53.85
43707;BME280;61348;53.392;-6.248;2023-09-12T12:02:12;101179.06;;;18.53;54.38
43707;BME280;61348;53.392;-6.248;2023-09-12T12:04:39;101169.44;;;18.50;54.73
43707;BME280;61348;53.392;-6.248;2023-09-12T12:07:07;101182.94;;;18.41;54.54
43707;BME280;61348;53.392;-6.248;2023-09-12T12:09:34;101185.34;;;18.39;54.44
43707;BME280;61348;53.392;-6.248;2023-09-12T12:12:09;101177.28;;;18.38;54.38
43707;BME280;61348;53.392;-6.248;2023-09-12T12:14:38;101180.47;;;18.33;54.39
43707;BME280;61348;53.392;-6.248;2023-09-12T12:17:09;101181.31;;;18.40;54.89
43707;BME280;61348;53.392;-6.248;2023-09-12T12:19:37;101190.28;;;18.53;55.14
43707;BME280;61348;53.392;-6.248;2023-09-12T12:22:05;101187.13;;;18.61;54.81
43707;BME280;61348;53.392;-6.248;2023-09-12T12:24:49;101181.97;;;18.63;55.16
43707;BME280;61348;53.392;-6.248;2023-09-12T12:27:18;101195.09;;;18.52;55.49
43707;BME280;61348;53.392;-6.248;2023-09-12T12:29:55;101187.28;;;18.35;55.61
43707;BME280;61348;53.392;-6.248;2023-09-12T12:32:22;101187.25;;;18.28;55.60
43707;BME280;61348;53.392;-6.248;2023-09-12T12:34:49;101191.72;;;18.36;55.85
43707;BME280;61348;53.392;-6.248;2023-09-12T12:37:37;101191.00;;;18.46;55.20
43707;BME280;61348;53.392;-6.248;2023-09-12T12:40:04;101203.88;;;18.47;55.17
43707;BME280;61348;53.392;-6.248;2023-09-12T12:42:38;101201.38;;;18.42;54.59
43707;BME280;61348;53.392;-6.248;2023-09-12T12:45:23;101214.31;;;18.50;55.13
43707;BME280;61348;53.392;-6.248;2023-09-12T12:48:00;101201.28;;;18.75;55.55
43707;BME280;61348;53.392;-6.248;2023-09-12T12:50:27;101198.56;;;18.90;55.77
43707;BME280;61348;53.392;-6.248;2023-09-12T12:52:54;101201.50;;;19.07;55.24